createdAt,value
2017-11-01T00:00:43.445Z,22.00
2017-11-01T00:06:46.921Z,25.23
2017-11-01T00:12:50.722Z,18.80
2017-11-01T00:18:54.441Z,21.77
2017-11-01T00:24:58.207Z,26.17
2017-11-01T00:31:01.900Z,18.27
2017-11-01T00:37:05.673Z,21.53
2017-11-01T00:43:09.126Z,20.00
2017-11-01T00:49:12.875Z,24.20
2017-11-01T00:55:16.601Z,34.27
2017-11-01T01:01:20.430Z,23.83
2017-11-01T01:07:24.239Z,25.60
2017-11-01T01:13:28.071Z,19.20
2017-11-01T01:19:32.338Z,34.80
2017-11-01T01:25:36.107Z,23.27
2017-11-01T01:31:39.831Z,29.03
2017-11-01T01:37:43.580Z,19.90
2017-11-01T01:43:47.351Z,20.33
2017-11-01T01:49:50.858Z,20.70
2017-11-01T01:55:54.308Z,22.07
2017-11-01T02:01:58.853Z,19.90
2017-11-01T02:08:02.648Z,23.73
2017-11-01T02:14:06.115Z,21.50
2017-11-01T02:20:09.590Z,23.40
2017-11-01T02:26:13.404Z,25.50
2017-11-01T02:32:16.850Z,20.43
2017-11-01T02:38:20.577Z,16.90
2017-11-01T02:44:24.376Z,26.33
2017-11-01T02:50:28.152Z,32.67
2017-11-01T02:56:31.595Z,33.27
2017-11-01T03:02:36.167Z,26.10
2017-11-01T03:08:39.956Z,29.00
2017-11-01T03:14:43.414Z,30.00
2017-11-01T03:20:47.212Z,20.80
2017-11-01T03:26:51.570Z,25.20
2017-11-01T03:32:55.013Z,21.93
2017-11-01T03:38:58.822Z,23.57
2017-11-01T03:45:02.613Z,27.47
2017-11-01T03:51:06.407Z,25.93
2017-11-01T03:57:10.145Z,28.03
2017-11-01T04:03:13.912Z,25.67
2017-11-01T04:09:17.708Z,28.80
2017-11-01T04:15:21.398Z,27.67
2017-11-01T04:21:27.687Z,31.50
2017-11-01T04:27:31.132Z,26.00
2017-11-01T04:33:34.587Z,29.27
2017-11-01T04:39:38.297Z,42.37
2017-11-01T04:45:42.093Z,27.20
2017-11-01T04:51:47.649Z,35.57
2017-11-01T04:57:53.268Z,31.07
2017-11-01T05:03:57.092Z,35.93
2017-11-01T05:10:00.537Z,33.90
2017-11-01T05:16:03.991Z,32.07
2017-11-01T05:22:07.753Z,32.00
2017-11-01T05:28:14.436Z,28.43
2017-11-01T05:34:17.891Z,33.20
2017-11-01T05:40:21.362Z,34.90
2017-11-01T05:46:25.243Z,35.57
2017-11-01T05:52:29.458Z,35.73
2017-11-01T05:58:33.299Z,30.43
2017-11-01T06:04:37.045Z,32.50
2017-11-01T06:10:40.746Z,35.00
2017-11-01T06:16:44.213Z,43.83
2017-11-01T06:22:48.751Z,35.90
2017-11-01T06:28:52.901Z,38.53
2017-11-01T06:34:57.118Z,36.47
2017-11-01T06:41:01.351Z,32.40
2017-11-01T06:47:05.592Z,33.70
2017-11-01T06:53:09.188Z,32.43
2017-11-01T06:59:12.646Z,31.40
2017-11-01T07:05:16.476Z,43.00
2017-11-01T07:11:19.928Z,36.97
2017-11-01T07:17:23.646Z,30.60
2017-11-01T07:23:27.082Z,33.90
2017-11-01T07:29:31.653Z,36.70
2017-11-01T07:35:35.647Z,34.10
2017-11-01T07:41:39.107Z,33.97
2017-11-01T07:47:43.342Z,36.23
2017-11-01T07:53:47.157Z,35.27
2017-11-01T07:59:50.612Z,44.47
2017-11-01T08:05:54.090Z,42.97
2017-11-01T08:11:58.637Z,44.23
2017-11-01T08:18:02.089Z,41.43
2017-11-01T08:24:06.315Z,34.10
2017-11-01T08:30:09.775Z,39.70
2017-11-01T08:36:14.344Z,43.10
2017-11-01T08:42:17.798Z,45.57
2017-11-01T08:48:21.489Z,45.13
2017-11-01T08:54:24.945Z,57.97
2017-11-01T09:00:29.259Z,53.03
2017-11-01T09:06:32.697Z,47.57
2017-11-01T09:12:36.159Z,49.07
2017-11-01T09:18:39.951Z,37.23
2017-11-01T09:24:43.409Z,40.83
2017-11-01T09:30:46.874Z,52.00
2017-11-01T09:36:51.104Z,45.83
2017-11-01T09:42:54.577Z,42.87
2017-11-01T09:48:58.042Z,46.33
2017-11-01T09:55:02.265Z,48.23
2017-11-01T10:01:06.081Z,41.00
2017-11-01T10:07:09.554Z,46.37
2017-11-01T10:13:13.086Z,44.43
2017-11-01T10:19:16.841Z,44.50
2017-11-01T10:25:20.432Z,39.13
2017-11-01T10:31:23.894Z,41.90
2017-11-01T10:37:27.338Z,47.83
2017-11-01T10:43:30.811Z,53.87
2017-11-01T10:49:34.281Z,51.77
2017-11-01T10:55:37.765Z,44.07
2017-11-01T11:01:41.476Z,54.00
2017-11-01T11:07:45.706Z,46.47
2017-11-01T11:13:49.185Z,44.93
2017-11-01T11:19:52.640Z,47.87
2017-11-01T11:25:57.014Z,48.03
2017-11-01T11:32:00.932Z,39.00
2017-11-01T11:38:04.419Z,44.10
2017-11-01T11:44:07.893Z,46.23
2017-11-01T11:50:11.354Z,35.27
2017-11-01T11:56:15.173Z,28.90
2017-11-01T12:02:18.638Z,40.37
2017-11-01T12:08:22.941Z,31.27
2017-11-01T12:14:26.393Z,35.70
2017-11-01T12:20:30.217Z,38.77
2017-11-01T12:26:33.706Z,31.53
2017-11-01T12:32:37.174Z,30.37
2017-11-01T12:38:40.649Z,30.43
2017-11-01T12:44:44.132Z,35.17
2017-11-01T12:50:47.613Z,32.33
2017-11-01T12:56:51.372Z,33.77
2017-11-01T13:02:55.635Z,33.53
2017-11-01T13:08:59.411Z,37.40
2017-11-01T13:15:03.124Z,27.00
2017-11-01T13:21:06.889Z,27.50
2017-11-01T13:27:10.381Z,36.13
2017-11-01T13:33:13.868Z,34.03
2017-11-01T13:39:17.364Z,26.50
2017-11-01T13:45:20.860Z,30.30
2017-11-01T13:51:24.624Z,30.20
2017-11-01T13:57:28.955Z,24.87
2017-11-01T14:03:32.818Z,27.13
2017-11-01T14:09:36.278Z,29.63
2017-11-01T14:15:39.729Z,24.83
2017-11-01T14:21:43.960Z,20.63
2017-11-01T14:27:47.765Z,25.60
2017-11-01T14:33:51.406Z,29.30
2017-11-01T14:39:54.872Z,26.57
2017-11-01T14:45:58.336Z,32.87
2017-11-01T14:52:02.132Z,40.30
2017-11-01T14:58:05.608Z,26.50
2017-11-01T15:04:09.396Z,31.50
2017-11-01T15:10:12.858Z,30.60
2017-11-01T15:16:16.676Z,38.40
2017-11-01T15:22:20.152Z,23.30
2017-11-01T15:41:28.665Z,29.33
2017-11-01T15:47:32.131Z,26.17
2017-11-01T15:53:35.617Z,29.87
2017-11-01T15:59:39.094Z,24.40
2017-11-01T16:05:42.922Z,25.53
2017-11-01T16:11:46.412Z,26.27
2017-11-01T16:17:49.876Z,29.93
2017-11-01T16:23:53.347Z,34.77
2017-11-01T16:29:56.815Z,25.93
2017-11-01T16:36:01.053Z,36.03
2017-11-01T16:42:04.845Z,32.97
2017-11-01T16:48:08.364Z,42.67
2017-11-01T16:54:11.825Z,32.17
2017-11-01T17:00:15.285Z,45.37
2017-11-01T17:06:19.901Z,32.37
2017-11-01T17:12:23.706Z,30.80
2017-11-01T17:18:27.306Z,36.77
2017-11-01T17:24:31.086Z,42.47
2017-11-01T17:30:34.554Z,34.97
2017-11-01T17:36:38.015Z,44.60
2017-11-01T17:42:41.452Z,40.10
2017-11-01T17:48:45.224Z,35.90
2017-11-01T17:54:48.705Z,36.67
2017-11-01T18:00:52.162Z,32.23
2017-11-01T18:06:55.623Z,30.67
2017-11-01T18:12:59.875Z,29.07
2017-11-01T18:19:03.457Z,36.77
2017-11-01T18:25:06.920Z,35.10
2017-11-01T18:31:10.386Z,27.30
2017-11-01T18:37:14.608Z,33.93
2017-11-01T18:43:18.434Z,36.80
2017-11-01T18:49:21.941Z,29.63
2017-11-01T18:55:25.414Z,40.00
2017-11-01T19:01:28.900Z,37.30
2017-11-01T19:07:32.370Z,38.27
2017-11-01T19:13:36.162Z,32.63
2017-11-01T19:19:39.645Z,33.93
2017-11-01T19:25:43.123Z,30.87
2017-11-01T19:31:46.629Z,38.33
2017-11-01T19:37:50.146Z,38.80
2017-11-01T19:43:54.365Z,38.57
2017-11-01T19:49:57.838Z,35.30
2017-11-01T19:56:01.669Z,48.30
2017-11-01T20:02:05.168Z,39.53
2017-11-01T20:08:08.635Z,42.83
2017-11-01T20:14:12.090Z,37.83
2017-11-01T20:20:15.586Z,37.60
2017-11-01T20:26:19.047Z,36.03
2017-11-01T20:32:23.197Z,31.67
2017-11-01T20:38:26.657Z,34.80
2017-11-01T20:44:30.138Z,31.57
2017-11-01T20:50:33.604Z,39.03
2017-11-01T20:56:37.064Z,33.97
2017-11-01T21:02:41.291Z,34.10
2017-11-01T21:08:44.881Z,45.77
2017-11-01T21:14:48.425Z,40.87
2017-11-01T21:20:51.969Z,45.93
2017-11-01T21:26:55.477Z,33.80
2017-11-01T21:32:58.977Z,32.43
2017-11-01T21:39:02.743Z,41.10
2017-11-01T21:45:06.213Z,37.70
2017-11-01T21:51:10.448Z,47.07
2017-11-01T21:57:13.932Z,30.97
2017-11-01T22:03:17.740Z,28.43
2017-11-01T22:09:21.292Z,27.20
2017-11-01T22:15:25.856Z,29.80
2017-11-01T22:21:29.321Z,31.50
2017-11-01T22:27:32.773Z,30.10
2017-11-01T22:33:36.998Z,42.73
2017-11-01T22:39:40.817Z,35.13
2017-11-01T22:45:44.569Z,32.77
2017-11-01T22:51:48.765Z,42.97
2017-11-01T22:57:53.847Z,48.30
2017-11-01T23:03:57.314Z,43.80
2017-11-01T23:10:00.772Z,35.43
2017-11-01T23:16:04.252Z,33.00
2017-11-01T23:22:08.071Z,25.40
2017-11-01T23:28:11.527Z,26.93
2017-11-01T23:34:15.370Z,22.67
2017-11-01T23:40:18.840Z,26.83
2017-11-01T23:46:23.045Z,26.73
2017-11-01T23:52:26.502Z,28.10
2017-11-01T23:58:29.972Z,28.87
